KLHM/LHM METAR and TAF weather

Enter ICAO airport designator
Station Type Date Time Source
KLHM METAR 2020/01/24 21:15 UTC NOAA

KLHM 242115Z AUTO 31005KT 10SM CLR 15/11 A3014 RMK AO1


Station Type Date Time Source
KLHM Decoded METAR 2020/01/24 21:15 UTC NOAA

Station name not available
Jan 24, 2020 - 04:15 PM EST / 2020.01.24 2115 UTC
Wind: from the NW (310 degrees) at 6 MPH (5 KT):0
Visibility: 10 mile(s):0
Sky conditions: clear
Temperature: 59 F (15 C)
Dew Point: 51 F (11 C)
Relative Humidity: 76%
Pressure (altimeter): 30.14 in. Hg (1020 hPa)
ob: KLHM 242115Z AUTO 31005KT 10SM CLR 15/11 A3014 RMK AO1
cycle: 21

Station Type Date Time Source
KLHM TAF UTC NOAA

Error!

Example: see airport list